Time;durP1;ratioP1;P1;durP2;ratioP2;P2;SDS_P1;SDS_P2;PMS_P1;PMS_P2;Temp;Humidity;BMP_temperature;BMP_pressure;BME280_temperature;BME280_humidity;BME280_pressure;Samples;Min_cycle;Max_cycle;Signal;HPM_P1;HPM_P2
2022/05/03 00:02:01;;;;;;;14.95;9.13;;;;;;;10.72;100.00;97757.03;5055597;28;20759;-79
2022/05/03 00:04:36;;;;;;;12.23;8.18;;;;;;;10.73;100.00;97753.19;5054610;28;20041;-85
2022/05/03 00:07:13;;;;;;;14.95;9.65;;;;;;;10.77;100.00;97756.91;5054161;28;20036;-80
2022/05/03 00:09:50;;;;;;;13.32;9.98;;;;;;;10.89;100.00;97759.19;5054226;28;20036;-79
2022/05/03 00:12:20;;;;;;;14.65;9.95;;;;;;;10.84;100.00;97755.75;5055406;28;20025;-80
2022/05/03 00:14:49;;;;;;;12.07;8.50;;;;;;;10.81;100.00;97746.19;5054480;28;20021;-80
2022/05/03 00:17:18;;;;;;;13.90;9.95;;;;;;;10.68;100.00;97742.31;5056185;28;20020;-80
2022/05/03 00:19:44;;;;;;;13.88;9.23;;;;;;;10.63;100.00;97750.63;5056270;28;20363;-79
2022/05/03 00:22:12;;;;;;;13.93;9.73;;;;;;;10.59;100.00;97741.38;5055076;28;20035;-82
2022/05/03 00:24:38;;;;;;;18.92;9.93;;;;;;;10.55;100.00;97745.03;5054948;28;20032;-82
2022/05/03 00:27:04;;;;;;;17.70;9.77;;;;;;;10.55;100.00;97750.50;5054277;28;20037;-81
2022/05/03 00:29:30;;;;;;;15.57;10.00;;;;;;;10.51;100.00;97747.56;5055557;28;20436;-81
2022/05/03 00:31:56;;;;;;;15.43;10.85;;;;;;;10.46;100.00;97749.56;5056617;28;20029;-79
2022/05/03 00:34:23;;;;;;;12.95;8.88;;;;;;;10.46;100.00;97744.09;5057533;28;20029;-82
2022/05/03 00:36:48;;;;;;;12.73;8.63;;;;;;;10.43;100.00;97740.03;5058008;28;20040;-84
2022/05/03 00:39:14;;;;;;;12.90;9.35;;;;;;;10.35;100.00;97735.25;5058709;28;20029;-85
2022/05/03 00:41:50;;;;;;;13.35;9.00;;;;;;;10.32;100.00;97743.25;5055465;28;20044;-76
2022/05/03 00:47:40;;;;;;;13.88;8.98;;;;;;;10.27;100.00;97738.69;5054546;28;20117;-80
2022/05/03 00:50:07;;;;;;;12.63;8.27;;;;;;;10.19;100.00;97734.69;5054103;28;20025;-78
2022/05/03 00:52:32;;;;;;;13.48;8.98;;;;;;;10.14;100.00;97740.25;5054249;28;20036;-77
2022/05/03 00:55:07;;;;;;;12.65;8.43;;;;;;;10.04;100.00;97728.63;5053923;28;20029;-81
2022/05/03 00:58:02;;;;;;;11.68;8.52;;;;;;;10.08;100.00;97732.41;5054312;28;20094;-80
2022/05/03 01:00:28;;;;;;;11.98;8.65;;;;;;;10.01;100.00;97721.84;5055070;28;20389;-86
2022/05/03 01:02:56;;;;;;;12.30;8.60;;;;;;;10.01;100.00;97734.69;5055919;28;20087;-81
2022/05/03 01:05:50;;;;;;;15.70;9.82;;;;;;;9.98;100.00;97727.09;5055490;28;20025;-80
2022/05/03 01:08:33;;;;;;;12.82;8.93;;;;;;;9.98;100.00;97725.16;5052422;28;20025;-83
2022/05/03 01:11:10;;;;;;;11.00;8.73;;;;;;;10.05;100.00;97730.25;5055077;28;20071;-82
2022/05/03 01:13:52;;;;;;;11.95;8.88;;;;;;;10.04;100.00;97736.81;5053931;28;20504;-84
2022/05/03 01:16:34;;;;;;;12.00;8.15;;;;;;;10.03;100.00;97727.81;5054145;28;20393;-83
2022/05/03 01:19:16;;;;;;;12.13;8.45;;;;;;;10.10;100.00;97732.91;5053642;28;20093;-79
2022/05/03 01:22:07;;;;;;;12.52;8.50;;;;;;;10.06;100.00;97732.69;5053978;28;20025;-86
2022/05/03 01:25:18;;;;;;;14.25;8.98;;;;;;;10.02;100.00;97737.09;5055450;28;20032;-83
2022/05/03 01:27:57;;;;;;;12.63;9.38;;;;;;;10.05;100.00;97733.81;5056415;28;20432;-80
2022/05/03 01:30:25;;;;;;;13.48;8.85;;;;;;;10.05;100.00;97735.72;5053592;28;20036;-81
2022/05/03 01:32:52;;;;;;;13.20;8.00;;;;;;;9.89;100.00;97732.41;5053806;28;20013;-82
2022/05/03 01:35:21;;;;;;;11.18;8.02;;;;;;;9.85;100.00;97744.22;5053901;28;20112;-80
2022/05/03 01:38:11;;;;;;;10.13;7.65;;;;;;;9.90;100.00;97741.44;5053259;28;20074;-80
2022/05/03 01:41:08;;;;;;;10.32;7.15;;;;;;;9.86;100.00;97732.19;5052020;28;20036;-80
2022/05/03 01:43:39;;;;;;;;;;;;;;;9.73;100.00;97741.13;5054580;28;20033;-84
2022/05/03 01:46:10;;;;;;;11.95;7.50;;;;;;;9.75;100.00;97749.81;5053988;28;19967;-81
2022/05/03 01:52:11;;;;;;;9.90;7.20;;;;;;;9.60;100.00;97742.66;5041121;28;20051;-76
2022/05/03 01:55:09;;;;;;;9.70;6.45;;;;;;;9.60;100.00;97737.22;5072004;28;20036;-77
2022/05/03 01:57:34;;;;;;;11.65;6.88;;;;;;;9.51;100.00;97738.97;5054024;28;20505;-77
2022/05/03 02:00:09;;;;;;;12.15;7.22;;;;;;;9.49;100.00;97736.53;5051927;28;20029;-77
2022/05/03 02:02:53;;;;;;;10.48;6.93;;;;;;;9.45;100.00;97740.16;5051448;28;20439;-77
2022/05/03 02:05:21;;;;;;;8.93;6.30;;;;;;;9.47;100.00;97737.91;5051773;28;20029;-80
2022/05/03 02:07:53;;;;;;;9.65;6.90;;;;;;;9.45;100.00;97746.41;5052794;28;20025;-76
2022/05/03 02:10:25;;;;;;;11.20;6.88;;;;;;;9.39;100.00;97757.69;5071769;28;20052;-82
2022/05/03 02:12:57;;;;;;;9.15;6.93;;;;;;;9.25;100.00;97746.66;5072384;28;20860;-78
2022/05/03 02:15:39;;;;;;;10.25;7.30;;;;;;;9.24;100.00;97742.31;5072072;28;20052;-82
2022/05/03 02:18:36;;;;;;;10.32;7.72;;;;;;;9.12;100.00;97753.63;5072750;28;20032;-77
2022/05/03 02:21:13;;;;;;;9.70;7.30;;;;;;;9.12;100.00;97750.09;5072144;28;20028;-80
2022/05/03 02:23:56;;;;;;;11.85;8.18;;;;;;;9.12;100.00;97755.56;5071743;28;20016;-78
2022/05/03 02:26:30;;;;;;;11.13;8.20;;;;;;;9.05;100.00;97755.91;5072441;28;20037;-79
2022/05/03 02:29:22;;;;;;;12.20;7.78;;;;;;;8.90;100.00;97749.81;5071819;28;20032;-80
2022/05/03 02:32:03;;;;;;;13.57;8.45;;;;;;;8.82;100.00;97747.72;5072040;28;20523;-78
2022/05/03 02:34:48;;;;;;;13.30;9.27;;;;;;;8.77;100.00;97747.78;5071863;28;20392;-81
2022/05/03 02:37:18;;;;;;;12.50;9.07;;;;;;;8.75;100.00;97741.78;5069878;28;20037;-79
2022/05/03 02:39:57;;;;;;;13.18;9.23;;;;;;;8.88;100.00;97743.84;5072159;28;20067;-79
2022/05/03 02:42:23;;;;;;;13.52;9.15;;;;;;;8.87;100.00;97737.56;5072826;28;20429;-81
2022/05/03 02:44:52;;;;;;;12.57;8.38;;;;;;;8.93;100.00;97739.13;5068975;28;20028;-79
2022/05/03 02:47:23;;;;;;;13.55;9.25;;;;;;;9.04;100.00;97751.56;5056035;28;20025;-79
2022/05/03 02:50:08;;;;;;;13.48;9.73;;;;;;;8.90;100.00;97742.44;5050839;28;20036;-83
2022/05/03 02:52:46;;;;;;;12.10;7.88;;;;;;;8.89;100.00;97743.56;5049903;28;20116;-83
2022/05/03 02:55:44;;;;;;;12.38;8.57;;;;;;;8.82;100.00;97742.25;5051140;28;20493;-81
2022/05/03 02:58:28;;;;;;;12.52;8.98;;;;;;;8.66;100.00;97751.69;5051425;28;20492;-79
2022/05/03 03:03:49;;;;;;;12.38;9.00;;;;;;;8.55;100.00;97745.56;5051360;28;20106;-79
2022/05/03 03:06:21;;;;;;;14.77;9.63;;;;;;;8.58;100.00;97751.22;5051210;28;20032;-80
2022/05/03 03:08:51;;;;;;;12.85;9.45;;;;;;;8.44;100.00;97736.66;5051640;28;20036;-77
2022/05/03 03:11:43;;;;;;;14.48;9.55;;;;;;;8.56;100.00;97747.97;5051683;28;20531;-78
2022/05/03 03:14:29;;;;;;;13.52;8.70;;;;;;;8.48;100.00;97751.34;5040542;28;20036;-80
2022/05/03 03:17:09;;;;;;;16.15;9.90;;;;;;;8.36;100.00;97750.91;5049493;28;20110;-81
2022/05/03 03:19:56;;;;;;;13.43;10.25;;;;;;;8.38;100.00;97745.16;5051517;28;20041;-80
2022/05/03 03:22:28;;;;;;;13.68;10.00;;;;;;;8.41;100.00;97758.22;5051320;28;20040;-82
2022/05/03 03:24:57;;;;;;;15.80;10.95;;;;;;;8.43;100.00;97748.63;5049663;28;21560;-80
2022/05/03 03:27:24;;;;;;;14.55;9.95;;;;;;;8.54;100.00;97747.47;5051265;28;20099;-77
2022/05/03 03:29:54;;;;;;;12.27;9.05;;;;;;;8.54;100.00;97750.19;5050824;28;20021;-80
2022/05/03 03:32:22;;;;;;;14.70;9.35;;;;;;;8.63;100.00;97744.91;5050907;28;20017;-79
2022/05/03 03:34:49;;;;;;;13.45;8.75;;;;;;;8.53;100.00;97745.81;5051844;28;20149;-79
2022/05/03 03:37:18;;;;;;;12.15;8.73;;;;;;;8.55;100.00;97753.72;5054777;28;20033;-80
2022/05/03 03:39:44;;;;;;;10.60;7.85;;;;;;;8.56;100.00;97750.69;5053878;28;20087;-77
2022/05/03 03:42:09;;;;;;;12.63;9.43;;;;;;;8.57;100.00;97752.34;5051525;28;20033;-81
2022/05/03 03:44:35;;;;;;;15.80;9.70;;;;;;;8.60;100.00;97762.66;5051163;28;20033;-80
2022/05/03 03:47:02;;;;;;;13.27;8.55;;;;;;;8.60;100.00;97749.03;5051200;28;20017;-81
2022/05/03 03:49:29;;;;;;;12.45;8.80;;;;;;;8.51;100.00;97758.94;5051369;28;20232;-77
2022/05/03 03:51:56;;;;;;;13.50;8.65;;;;;;;8.46;100.00;97760.88;5051470;28;20029;-80
2022/05/03 03:54:23;;;;;;;12.73;9.60;;;;;;;8.43;100.00;97756.81;5051857;28;20032;-78
2022/05/03 03:56:50;;;;;;;14.70;9.45;;;;;;;8.45;100.00;97762.81;5051727;28;20025;-79
2022/05/03 03:59:16;;;;;;;12.27;9.15;;;;;;;8.46;100.00;97766.31;5051845;28;20075;-82
2022/05/03 04:01:43;;;;;;;15.98;10.02;;;;;;;8.49;100.00;97769.28;5054265;28;20100;-77
2022/05/03 04:04:09;;;;;;;13.57;9.40;;;;;;;8.54;100.00;97774.72;5055397;28;20033;-79
2022/05/03 04:06:35;;;;;;;13.32;8.82;;;;;;;8.53;100.00;97775.00;5055584;28;20091;-82
2022/05/03 04:09:01;;;;;;;13.57;9.20;;;;;;;8.55;100.00;97765.41;5055168;28;20473;-79
2022/05/03 04:11:27;;;;;;;16.85;8.70;;;;;;;8.68;100.00;97779.50;5055480;28;20032;-80
2022/05/03 04:13:52;;;;;;;10.02;7.45;;;;;;;8.85;100.00;97768.97;5055511;28;20033;-82
2022/05/03 04:16:18;;;;;;;10.95;7.68;;;;;;;8.87;100.00;97783.09;5055020;28;20123;-87
2022/05/03 04:18:46;;;;;;;10.15;8.07;;;;;;;8.87;100.00;97772.19;5054831;28;20025;-82
2022/05/03 04:21:18;;;;;;;11.57;8.55;;;;;;;8.89;100.00;97781.75;5054705;28;20884;-81
2022/05/03 04:23:46;;;;;;;14.15;8.25;;;;;;;8.95;100.00;97777.03;5055287;28;20032;-81
2022/05/03 04:26:12;;;;;;;12.70;7.72;;;;;;;9.07;100.00;97782.91;5052495;28;20037;-81
2022/05/03 04:28:39;;;;;;;16.77;8.55;;;;;;;9.13;100.00;97781.75;5055481;28;20029;-81
2022/05/03 04:31:06;;;;;;;12.20;8.57;;;;;;;9.35;100.00;97784.75;5054352;28;20032;-78
2022/05/03 04:33:32;;;;;;;12.88;8.05;;;;;;;9.49;100.00;97790.34;5054131;28;20496;-82
2022/05/03 04:35:57;;;;;;;12.60;8.32;;;;;;;9.53;100.00;97797.63;5053276;28;20146;-86
2022/05/03 04:38:23;;;;;;;12.15;8.02;;;;;;;9.60;100.00;97795.38;5059690;28;20032;-79
2022/05/03 04:40:49;;;;;;;11.98;7.95;;;;;;;9.64;100.00;97806.50;5052776;28;20481;-78
2022/05/03 04:43:14;;;;;;;10.80;7.63;;;;;;;9.66;100.00;97802.38;5053247;28;20028;-78
2022/05/03 04:45:40;;;;;;;12.52;8.05;;;;;;;9.73;100.00;97801.22;5052376;28;20016;-76
2022/05/03 04:48:06;;;;;;;10.98;7.50;;;;;;;9.67;100.00;97798.56;5052003;28;20367;-75
2022/05/03 04:50:31;;;;;;;13.60;8.13;;;;;;;9.77;100.00;97796.78;5052674;28;20055;-75
2022/05/03 04:52:57;;;;;;;10.93;7.90;;;;;;;9.90;100.00;97804.28;5053511;28;20056;-78
2022/05/03 04:55:26;;;;;;;10.93;7.60;;;;;;;9.95;100.00;97799.53;5053331;28;20417;-76
2022/05/03 04:57:53;;;;;;;10.98;7.68;;;;;;;9.99;100.00;97797.03;5052904;28;20469;-76
2022/05/03 05:00:19;;;;;;;18.48;8.75;;;;;;;9.88;100.00;97799.09;5051561;28;20029;-75
2022/05/03 05:02:44;;;;;;;14.52;8.63;;;;;;;10.04;100.00;97808.69;5051405;28;20405;-74
2022/05/03 05:05:09;;;;;;;11.65;8.20;;;;;;;9.91;100.00;97806.69;5051239;28;20473;-75
2022/05/03 05:07:35;;;;;;;12.57;8.20;;;;;;;9.76;100.00;97797.88;5048610;28;20028;-75
2022/05/03 05:12:44;;;;;;;13.15;8.90;;;;;;;9.89;100.00;97802.63;5046678;28;20040;-75
2022/05/03 05:15:10;;;;;;;13.38;8.00;;;;;;;9.73;100.00;97804.75;5049891;28;20021;-75
2022/05/03 05:17:36;;;;;;;11.27;8.23;;;;;;;9.74;100.00;97811.03;5052246;28;20053;-75
2022/05/03 05:20:02;;;;;;;17.85;9.02;;;;;;;9.79;100.00;97822.69;5050632;28;20065;-74
2022/05/03 05:22:27;;;;;;;16.25;10.27;;;;;;;10.00;100.00;97820.50;5051176;28;20027;-75
2022/05/03 05:24:53;;;;;;;16.75;9.95;;;;;;;10.02;100.00;97810.88;5051087;28;20434;-75
2022/05/03 05:27:18;;;;;;;14.82;10.13;;;;;;;9.97;100.00;97810.97;5051206;28;20036;-74
2022/05/03 05:29:43;;;;;;;14.93;9.48;;;;;;;10.22;100.00;97812.53;5049485;28;20461;-74
2022/05/03 05:32:10;;;;;;;17.30;9.95;;;;;;;10.54;100.00;97820.81;5039927;28;20032;-75
2022/05/03 05:34:36;;;;;;;15.48;9.45;;;;;;;10.64;100.00;97814.34;5052674;28;21155;-78
2022/05/03 05:37:02;;;;;;;18.75;9.35;;;;;;;10.36;100.00;97812.63;5054316;28;20461;-76
2022/05/03 05:39:27;;;;;;;14.07;9.80;;;;;;;10.20;100.00;97822.97;5051624;28;20452;-75
2022/05/03 05:41:57;;;;;;;15.52;10.75;;;;;;;10.39;100.00;97821.03;5049468;28;20040;-76
2022/05/03 05:44:23;;;;;;;15.52;10.02;;;;;;;10.55;100.00;97825.16;5052167;28;20060;-75
2022/05/03 05:46:48;;;;;;;16.45;9.48;;;;;;;10.88;100.00;97817.75;5054187;28;20021;-77
2022/05/03 05:49:14;;;;;;;15.57;9.43;;;;;;;11.25;100.00;97827.75;5067555;28;20035;-76
2022/05/03 05:51:39;;;;;;;15.65;10.40;;;;;;;11.28;100.00;97827.97;5073202;28;20392;-76
2022/05/03 05:54:05;;;;;;;16.23;9.75;;;;;;;11.24;100.00;97826.94;5070288;28;20028;-77
2022/05/03 05:56:30;;;;;;;13.88;9.65;;;;;;;11.39;100.00;97830.50;5071210;28;20481;-77
2022/05/03 05:58:56;;;;;;;15.73;9.75;;;;;;;11.71;100.00;97831.25;5071431;28;20031;-81
2022/05/03 06:01:26;;;;;;;16.23;9.68;;;;;;;12.10;100.00;97832.59;5071383;28;20017;-78
2022/05/03 06:03:52;;;;;;;13.25;8.77;;;;;;;12.61;100.00;97822.09;5070036;28;20052;-75
2022/05/03 06:06:17;;;;;;;14.73;8.88;;;;;;;12.87;100.00;97828.56;5075001;28;20032;-82
2022/05/03 06:08:44;;;;;;;12.30;8.60;;;;;;;12.68;100.00;97836.19;5072677;28;20049;-81
2022/05/03 06:11:09;;;;;;;11.80;8.25;;;;;;;13.06;100.00;97822.84;5072032;28;20040;-81
2022/05/03 06:13:35;;;;;;;10.27;8.10;;;;;;;13.49;100.00;97819.53;5072222;28;20044;-80
2022/05/03 06:16:08;;;;;;;11.52;8.15;;;;;;;13.93;100.00;97828.44;5073141;28;20028;-77
2022/05/03 06:18:33;;;;;;;10.85;7.43;;;;;;;14.38;100.00;97828.19;5073461;28;20017;-79
2022/05/03 06:21:00;;;;;;;10.40;7.32;;;;;;;14.36;100.00;97824.94;5071568;28;20423;-76
2022/05/03 06:23:26;;;;;;;12.25;8.00;;;;;;;14.29;100.00;97835.59;5070860;28;20025;-82
2022/05/03 06:25:51;;;;;;;11.13;8.20;;;;;;;14.14;100.00;97831.38;5058499;28;20052;-76
2022/05/03 06:28:16;;;;;;;12.60;7.63;;;;;;;14.43;100.00;97828.03;5051293;28;20032;-80
2022/05/03 06:30:42;;;;;;;11.15;7.57;;;;;;;13.84;100.00;97827.59;5050891;28;20371;-76
2022/05/03 06:33:07;;;;;;;15.05;9.13;;;;;;;14.26;100.00;97830.72;5051088;28;20445;-81
2022/05/03 06:35:33;;;;;;;13.93;8.38;;;;;;;14.65;100.00;97838.88;5050442;28;20079;-81
2022/05/03 06:37:58;;;;;;;13.57;8.70;;;;;;;14.86;97.75;97828.81;5052571;28;20109;-76
2022/05/03 06:40:24;;;;;;;11.68;8.13;;;;;;;14.68;97.33;97824.47;5051332;28;20024;-79
2022/05/03 06:42:49;;;;;;;12.70;8.20;;;;;;;14.87;97.63;97832.38;5052278;28;20025;-75
2022/05/03 06:45:15;;;;;;;10.98;7.57;;;;;;;14.94;96.17;97833.50;5051212;28;20060;-78
2022/05/03 06:47:40;;;;;;;11.05;7.70;;;;;;;15.09;94.46;97828.63;5051698;28;20032;-83
2022/05/03 06:50:08;;;;;;;11.52;7.95;;;;;;;15.14;93.00;97826.50;5051254;28;20079;-77
2022/05/03 06:52:33;;;;;;;12.88;8.50;;;;;;;14.74;96.01;97827.84;5050383;28;20029;-76
2022/05/03 06:54:59;;;;;;;15.63;8.32;;;;;;;14.95;94.86;97829.63;5050719;28;20112;-77
2022/05/03 06:57:24;;;;;;;11.05;8.15;;;;;;;14.76;95.44;97834.66;5051036;28;20025;-77
2022/05/03 06:59:50;;;;;;;10.75;7.25;;;;;;;14.65;96.71;97835.31;5051833;28;20059;-80
2022/05/03 07:02:15;;;;;;;10.48;7.72;;;;;;;14.62;96.39;97838.72;5054179;28;20057;-80
2022/05/03 07:04:44;;;;;;;9.82;7.30;;;;;;;14.80;95.71;97841.13;5050211;28;20087;-80
2022/05/03 07:07:09;;;;;;;11.82;7.03;;;;;;;14.88;93.93;97834.81;5051962;28;20043;-82
2022/05/03 07:09:35;;;;;;;9.80;7.13;;;;;;;14.89;93.19;97833.69;5050735;28;20436;-79
2022/05/03 07:12:00;;;;;;;11.38;7.10;;;;;;;14.59;95.47;97836.63;5062560;28;20508;-83
2022/05/03 07:14:25;;;;;;;10.77;6.93;;;;;;;14.98;93.32;97842.72;5077521;28;20017;-78
2022/05/03 07:16:51;;;;;;;9.90;6.97;;;;;;;15.00;92.36;97831.41;5091276;28;20385;-84
2022/05/03 07:22:45;;;;;;;9.57;7.20;;;;;;;15.23;91.23;97837.50;5093600;28;20096;-84
2022/05/03 07:24:55;;;;;;;14.63;7.82;;;;;;;15.77;88.56;97841.38;5092505;28;20033;-86
2022/05/03 07:27:20;;;;;;;9.88;7.68;;;;;;;15.89;87.81;97836.78;5092863;28;20096;-84
2022/05/03 07:29:46;;;;;;;8.80;6.55;;;;;;;16.51;84.73;97830.50;5092946;28;20016;-85
2022/05/03 07:32:11;;;;;;;15.57;7.10;;;;;;;16.40;83.52;97830.13;5092186;28;20092;-82
2022/05/03 07:34:36;;;;;;;9.25;6.50;;;;;;;16.24;83.25;97831.88;5091778;28;20025;-85
2022/05/03 07:37:02;;;;;;;9.60;6.85;;;;;;;16.14;84.10;97832.25;5094949;28;20028;-85
2022/05/03 07:39:30;;;;;;;12.50;6.20;;;;;;;16.48;82.04;97825.66;5095145;28;20044;-83
2022/05/03 07:41:57;;;;;;;11.07;6.63;;;;;;;16.73;80.38;97838.50;5094346;28;20044;-85
2022/05/03 07:44:23;;;;;;;10.27;6.82;;;;;;;16.94;79.33;97833.78;5096337;28;20017;-83
2022/05/03 07:46:48;;;;;;;9.57;6.70;;;;;;;17.09;78.11;97835.09;5095239;28;20055;-87
2022/05/03 07:49:13;;;;;;;8.80;6.40;;;;;;;17.57;75.78;97828.91;5094837;28;20025;-86
2022/05/03 07:51:41;;;;;;;9.80;6.63;;;;;;;17.88;75.43;97829.16;5095385;28;20755;-84
2022/05/03 07:54:07;;;;;;;14.38;8.07;;;;;;;18.45;72.92;97825.41;5094665;28;20096;-84
2022/05/03 07:56:33;;;;;;;11.27;7.30;;;;;;;19.37;68.04;97834.41;5095124;28;20515;-83
2022/05/03 07:58:58;;;;;;;10.00;6.75;;;;;;;20.19;63.24;97827.00;5096798;28;20017;-84
2022/05/03 08:01:23;;;;;;;10.77;6.18;;;;;;;20.57;62.00;97837.41;5096301;28;20025;-81
2022/05/03 08:03:49;;;;;;;9.07;6.13;;;;;;;;;;5095210;28;20033;-85
2022/05/03 08:06:14;;;;;;;15.13;6.65;;;;;;;22.27;56.93;97838.69;5095136;28;20094;-87
2022/05/03 08:08:40;;;;;;;8.35;6.30;;;;;;;22.42;54.25;97831.34;5095890;28;20061;-86
2022/05/03 08:11:05;;;;;;;7.65;5.65;;;;;;;23.22;52.47;97830.03;5096086;28;20021;-85
2022/05/03 08:13:30;;;;;;;7.93;6.05;;;;;;;24.13;49.38;97834.97;5096211;28;20031;-80
2022/05/03 08:15:56;;;;;;;9.20;5.78;;;;;;;24.94;47.39;97841.94;5094060;28;20036;-82
2022/05/03 08:18:21;;;;;;;10.20;6.20;;;;;;;25.58;43.52;97835.78;5095541;28;20031;-82
2022/05/03 08:20:47;;;;;;;7.85;5.35;;;;;;;25.62;41.83;97840.22;5095813;28;20020;-85
2022/05/03 08:23:12;;;;;;;7.18;5.80;;;;;;;25.70;42.26;97836.22;5095692;28;20028;-83
2022/05/03 08:25:37;;;;;;;16.25;5.75;;;;;;;25.93;41.38;97842.25;5094962;28;20066;-84
2022/05/03 08:28:04;;;;;;;9.27;5.63;;;;;;;25.56;41.83;97839.78;5096618;28;20037;-87
2022/05/03 08:30:30;;;;;;;10.82;5.05;;;;;;;27.21;38.40;97839.28;5096147;28;20092;-82
2022/05/03 08:32:55;;;;;;;10.27;4.50;;;;;;;27.19;38.03;97839.66;5095200;28;20032;-83
2022/05/03 08:35:24;;;;;;;8.40;5.43;;;;;;;26.81;39.12;97841.44;5095072;28;20025;-85
2022/05/03 08:43:18;;;;;;;6.38;4.78;;;;;;;28.97;35.32;97842.81;5095363;28;20260;-83
2022/05/03 08:45:48;;;;;;;7.35;5.10;;;;;;;29.73;33.20;97847.88;5095222;28;20585;-84
2022/05/03 08:48:16;;;;;;;9.02;4.15;;;;;;;27.87;36.29;97834.53;5094964;28;20033;-84
2022/05/03 08:50:42;;;;;;;6.07;4.55;;;;;;;26.43;38.40;97826.25;5095231;28;20036;-83
2022/05/03 08:53:09;;;;;;;7.00;4.20;;;;;;;27.82;36.14;97832.13;5094695;28;20021;-81
2022/05/03 08:55:35;;;;;;;4.72;3.55;;;;;;;28.27;34.21;97836.63;5084050;28;20020;-78
2022/05/03 08:58:00;;;;;;;6.20;4.15;;;;;;;28.27;33.42;97835.84;5052966;28;20440;-75
2022/05/03 09:00:26;;;;;;;4.82;3.70;;;;;;;27.13;35.87;97830.88;5050710;28;20021;-74
2022/05/03 09:02:56;;;;;;;4.68;3.75;;;;;;;28.00;34.02;97836.44;5048130;28;20060;-75
2022/05/03 09:05:23;;;;;;;8.68;3.45;;;;;;;27.83;34.36;97837.34;5051631;28;20036;-75
2022/05/03 09:07:55;;;;;;;4.20;3.25;;;;;;;25.99;37.44;97820.22;5051682;28;20024;-73
2022/05/03 09:10:21;;;;;;;4.65;3.53;;;;;;;26.57;36.23;97836.63;5049768;28;20021;-76
2022/05/03 09:12:48;;;;;;;4.43;3.58;;;;;;;25.95;37.04;97833.44;5052110;28;20029;-73
2022/05/03 09:15:13;;;;;;;4.85;3.20;;;;;;;25.87;36.65;97823.44;5050484;28;20057;-74
2022/05/03 09:17:43;;;;;;;4.30;3.17;;;;;;;24.30;39.47;97823.94;5051454;28;20060;-72
2022/05/03 09:26:08;;;;;;;5.03;3.22;;;;;;;25.83;36.77;97826.22;5049024;28;20047;-74
2022/05/03 09:28:33;;;;;;;4.82;3.00;;;;;;;26.19;35.72;97824.25;5050392;28;20048;-74
2022/05/03 09:30:59;;;;;;;3.90;2.70;;;;;;;26.58;35.19;97827.00;5050868;28;20484;-72
2022/05/03 09:33:24;;;;;;;3.78;2.67;;;;;;;26.12;35.10;97821.44;5051129;28;20052;-72
2022/05/03 09:35:50;;;;;;;3.70;2.78;;;;;;;23.20;39.22;97821.25;5049526;28;20486;-74
2022/05/03 09:38:16;;;;;;;4.53;2.85;;;;;;;24.47;36.92;97822.44;5051317;28;20597;-74
2022/05/03 09:40:44;;;;;;;3.55;2.20;;;;;;;24.46;33.78;97821.63;5051089;28;20051;-74
2022/05/03 09:43:10;;;;;;;3.95;2.30;;;;;;;25.61;32.64;97821.78;5051381;28;20166;-74
2022/05/03 09:45:37;;;;;;;5.03;3.05;;;;;;;27.11;31.60;97818.44;5051034;28;20029;-74
2022/05/03 09:48:03;;;;;;;3.58;2.40;;;;;;;26.24;31.32;97812.63;5050718;28;20047;-72
2022/05/03 09:50:32;;;;;;;3.85;2.83;;;;;;;25.50;32.49;97818.94;5052670;28;20052;-73
2022/05/03 09:53:07;;;;;;;3.88;2.50;;;;;;;26.98;31.66;97811.69;5045636;28;20021;-74
2022/05/03 09:55:36;;;;;;;3.97;2.55;;;;;;;26.19;32.19;97813.03;5049607;28;20060;-73
2022/05/03 09:58:07;;;;;;;3.70;2.90;;;;;;;25.23;34.04;97809.25;5050280;28;20009;-73
2022/05/03 10:00:34;;;;;;;6.40;2.90;;;;;;;26.28;32.13;97807.81;5047234;28;20112;-74
2022/05/03 10:03:07;;;;;;;3.33;2.60;;;;;;;26.92;32.11;97794.47;5050015;28;20112;-74
2022/05/03 10:05:34;;;;;;;4.50;2.88;;;;;;;27.22;31.40;97790.31;5050261;28;20081;-72
2022/05/03 10:08:06;;;;;;;4.28;2.67;;;;;;;25.96;31.54;97802.22;5050362;28;20021;-73
2022/05/03 10:10:32;;;;;;;4.10;2.47;;;;;;;26.32;31.25;97799.38;5052657;28;20021;-76
2022/05/03 10:12:58;;;;;;;3.67;2.72;;;;;;;26.28;31.85;97790.97;5051526;28;20029;-73
2022/05/03 10:21:12;;;;;;;3.58;2.30;;;;;;;26.28;29.65;97781.78;5051655;28;20040;-73
2022/05/03 10:23:38;;;;;;;3.88;2.40;;;;;;;25.88;30.40;97774.53;5049104;28;20013;-73
2022/05/03 10:26:06;;;;;;;3.15;2.25;;;;;;;25.32;30.69;97784.47;5049429;28;20035;-74
2022/05/03 10:29:09;;;;;;;4.72;2.70;;;;;;;23.98;31.86;97778.13;5050858;28;20028;-74
2022/05/03 10:31:56;;;;;;;2.88;2.40;;;;;;;24.68;30.35;97779.81;5048929;28;20163;-75
2022/05/03 10:34:40;;;;;;;3.47;2.25;;;;;;;26.14;28.21;97779.75;5049519;28;20029;-75
2022/05/03 10:37:17;;;;;;;3.33;2.30;;;;;;;24.84;29.92;97774.72;5048897;28;20059;-72
2022/05/03 10:39:51;;;;;;;4.70;2.83;;;;;;;25.28;31.73;97772.44;5049222;28;20037;-73
2022/05/03 10:42:22;;;;;;;5.43;3.00;;;;;;;23.39;34.20;97765.22;5047378;28;20044;-75
2022/05/03 10:44:53;;;;;;;6.35;2.85;;;;;;;23.68;34.40;97771.91;5049626;28;20031;-74
2022/05/03 10:47:38;;;;;;;4.57;2.55;;;;;;;23.12;33.68;97763.75;5047359;28;20714;-73
2022/05/03 10:50:13;;;;;;;3.45;2.35;;;;;;;24.31;32.60;97769.59;5045769;28;20040;-74
2022/05/03 10:52:58;;;;;;;6.35;2.42;;;;;;;23.72;33.52;97762.34;5050444;28;20039;-74
2022/05/03 10:55:24;;;;;;;;;;;;;;;24.20;34.02;97767.94;5037863;28;20545;-73
2022/05/03 10:58:18;;;;;;;4.32;2.63;;;;;;;24.52;32.41;97758.56;5049482;28;19920;-73
2022/05/03 11:01:08;;;;;;;3.70;2.15;;;;;;;25.14;31.58;97757.63;5047915;28;20029;-74
2022/05/03 11:03:39;;;;;;;3.55;2.30;;;;;;;25.00;31.93;97753.56;5048708;28;20087;-75
2022/05/03 11:06:19;;;;;;;3.10;2.30;;;;;;;23.39;35.56;97745.69;5050106;28;20044;-75
2022/05/03 11:09:15;;;;;;;2.85;2.30;;;;;;;22.05;37.17;97744.81;5050169;28;20029;-75
2022/05/03 11:11:50;;;;;;;4.13;2.65;;;;;;;21.83;37.89;97740.06;5047932;28;20124;-74
2022/05/03 11:14:19;;;;;;;7.35;3.03;;;;;;;22.11;37.34;97743.31;5056933;28;20060;-73
2022/05/03 11:17:05;;;;;;;3.83;2.60;;;;;;;23.31;36.54;97739.22;5056426;28;20148;-75
2022/05/03 11:19:33;;;;;;;3.88;2.58;;;;;;;24.16;34.33;97731.56;5059517;28;20029;-74
2022/05/03 11:21:59;;;;;;;4.97;2.50;;;;;;;23.75;34.99;97732.84;5057553;28;20078;-73
2022/05/03 11:24:30;;;;;;;4.65;2.70;;;;;;;23.96;34.72;97728.19;5056669;28;20037;-73
2022/05/03 11:27:05;;;;;;;4.65;2.75;;;;;;;22.93;37.58;97725.66;5057002;28;20033;-74
2022/05/03 11:29:34;;;;;;;4.00;2.60;;;;;;;21.61;40.03;97724.19;5057524;28;20458;-74
2022/05/03 11:32:01;;;;;;;4.35;3.17;;;;;;;22.55;38.21;97720.41;5057140;28;20393;-73
2022/05/03 11:34:27;;;;;;;4.13;2.67;;;;;;;22.83;38.11;97726.34;5057260;28;20029;-74
2022/05/03 11:36:53;;;;;;;7.25;2.70;;;;;;;23.56;36.14;97719.09;5056041;28;20102;-73
2022/05/03 11:39:21;;;;;;;3.55;2.40;;;;;;;24.34;35.45;97721.28;5057307;28;20385;-75
2022/05/03 11:41:47;;;;;;;3.67;2.53;;;;;;;23.77;35.81;97713.72;5055920;28;20036;-73
2022/05/03 11:44:13;;;;;;;2.90;2.40;;;;;;;23.55;36.81;97709.94;5056894;28;20056;-74
2022/05/03 11:46:41;;;;;;;5.65;2.95;;;;;;;23.52;36.88;97705.13;5055924;28;20033;-74
2022/05/03 11:49:11;;;;;;;3.80;2.58;;;;;;;22.56;37.41;97708.03;5051612;28;20433;-76
2022/05/03 11:57:32;;;;;;;3.22;2.40;;;;;;;23.59;36.17;97704.41;5055359;28;20035;-72
2022/05/03 11:59:59;;;;;;;3.20;2.58;;;;;;;23.74;35.27;97703.31;5053933;28;20052;-73
2022/05/03 12:02:28;;;;;;;7.05;2.63;;;;;;;23.47;36.16;97697.09;5054963;28;20075;-73
2022/05/03 12:05:11;;;;;;;5.28;2.38;;;;;;;22.56;36.79;97692.13;5053658;28;20454;-74
2022/05/03 12:07:48;;;;;;;4.78;2.70;;;;;;;22.03;37.36;97694.22;5054871;28;20713;-74
2022/05/03 12:10:27;;;;;;;5.53;2.63;;;;;;;22.64;36.86;97690.22;5053568;28;20108;-73
2022/05/03 12:13:13;;;;;;;3.38;2.17;;;;;;;22.88;37.18;97679.38;5050712;28;20104;-73
2022/05/03 12:15:45;;;;;;;3.13;2.33;;;;;;;22.49;37.54;97686.47;5052825;28;20116;-73
2022/05/03 12:18:20;;;;;;;3.63;2.35;;;;;;;22.16;38.55;97683.66;5056138;28;20066;-73
2022/05/03 12:21:03;;;;;;;3.22;2.42;;;;;;;22.00;36.04;97694.97;5056408;28;20054;-73